Time,TemperatureF,DewpointF,PressureIn,WindDirection,WindDirectionDegrees,WindSpeedMPH,WindSpeedGustMPH,Humidity,HourlyPrecipIn,Conditions,Clouds,dailyrainin,SoftwareType,DateUTC
2013-01-19 00:06:00,30.1,15.0,30.39,South,187,4.0,6.0,53,0.00,,,0.00,weatherlink.com 1.10,2013-01-19 05:06:00,
2013-01-19 00:21:00,30.3,14.0,30.39,WNW,296,1.0,6.0,52,0.00,,,0.00,weatherlink.com 1.10,2013-01-19 05:21:00,
2013-01-19 00:36:00,30.6,14.0,30.39,SSW,211,2.0,5.0,51,0.00,,,0.00,weatherlink.com 1.10,2013-01-19 05:36:00,
2013-01-19 01:06:00,30.8,14.0,30.39,SSW,212,2.0,7.0,51,0.00,,,0.00,weatherlink.com 1.10,2013-01-19 06:06:00,
2013-01-19 01:21:00,30.6,14.0,30.39,WNW,293,2.0,7.0,51,0.00,,,0.00,weatherlink.com 1.10,2013-01-19 06:21:00,
2013-01-19 01:36:00,30.3,15.0,30.39,NW,307,1.0,5.0,53,0.00,,,0.00,weatherlink.com 1.10,2013-01-19 06:36:00,
2013-01-19 01:51:00,30.4,15.0,30.39,WSW,245,0.0,6.0,53,0.00,,,0.00,weatherlink.com 1.10,2013-01-19 06:51:00,
2013-01-19 02:06:00,30.5,15.0,30.39,WNW,288,2.0,6.0,53,0.00,,,0.00,weatherlink.com 1.10,2013-01-19 07:06:00,
2013-01-19 02:21:00,30.8,16.0,30.38,WSW,240,0.0,7.0,54,0.00,,,0.00,weatherlink.com 1.10,2013-01-19 07:21:00,
2013-01-19 02:36:00,30.9,17.0,30.37,West,267,0.0,4.0,57,0.00,,,0.00,weatherlink.com 1.10,2013-01-19 07:36:00,
2013-01-19 02:51:00,31.2,17.0,30.36,WSW,243,4.0,8.0,57,0.00,,,0.00,weatherlink.com 1.10,2013-01-19 07:51:00,
2013-01-19 03:06:00,31.4,18.0,30.35,NNW,329,2.0,8.0,58,0.00,,,0.00,weatherlink.com 1.10,2013-01-19 08:06:00,
2013-01-19 03:21:00,31.6,18.0,30.34,South,187,2.0,9.0,58,0.00,,,0.00,weatherlink.com 1.10,2013-01-19 08:21:00,
2013-01-19 03:36:00,31.8,18.0,30.33,SW,214,4.0,9.0,58,0.00,,,0.00,weatherlink.com 1.10,2013-01-19 08:36:00,
2013-01-19 03:51:00,31.9,18.0,30.33,WSW,240,4.0,9.0,57,0.00,,,0.00,weatherlink.com 1.10,2013-01-19 08:51:00,
2013-01-19 04:06:00,31.9,18.0,30.33,ESE,122,2.0,8.0,57,0.00,,,0.00,weatherlink.com 1.10,2013-01-19 09:06:00,
2013-01-19 04:21:00,32.0,18.0,30.33,WNW,285,3.0,8.0,57,0.00,,,0.00,weatherlink.com 1.10,2013-01-19 09:21:00,
2013-01-19 04:36:00,32.2,19.0,30.32,ESE,115,1.0,7.0,59,0.00,,,0.00,weatherlink.com 1.10,2013-01-19 09:36:00,
2013-01-19 04:51:00,32.4,20.0,30.32,South,191,2.0,7.0,61,0.00,,,0.00,weatherlink.com 1.10,2013-01-19 09:51:00,
2013-01-19 05:06:00,32.6,21.0,30.31,WNW,290,3.0,10.0,63,0.00,,,0.00,weatherlink.com 1.10,2013-01-19 10:06:00,
2013-01-19 05:21:00,32.6,21.0,30.31,WNW,284,2.0,10.0,63,0.00,,,0.00,weatherlink.com 1.10,2013-01-19 10:21:00,
2013-01-19 05:36:00,32.5,21.0,30.30,WNW,294,1.0,9.0,64,0.00,,,0.00,weatherlink.com 1.10,2013-01-19 10:36:00,
2013-01-19 05:51:00,32.4,22.0,30.30,SSE,152,2.0,9.0,65,0.00,,,0.00,weatherlink.com 1.10,2013-01-19 10:51:00,
2013-01-19 06:06:00,32.5,22.0,30.30,NNW,347,3.0,7.0,66,0.00,,,0.00,weatherlink.com 1.10,2013-01-19 11:06:00,
2013-01-19 07:53:00,34.1,25.0,30.28,NW,311,4.0,14.0,69,0.00,,,0.00,weatherlink.com 1.10,2013-01-19 12:53:00,
2013-01-19 08:07:00,34.4,25.0,30.28,West,263,3.0,8.0,69,0.00,,,0.00,weatherlink.com 1.10,2013-01-19 13:07:00,
2013-01-19 08:22:00,34.9,26.0,30.28,WNW,303,4.0,10.0,69,0.00,,,0.00,weatherlink.com 1.10,2013-01-19 13:22:00,
2013-01-19 08:37:00,35.6,26.0,30.28,SSE,168,3.0,11.0,68,0.00,,,0.00,weatherlink.com 1.10,2013-01-19 13:37:00,
2013-01-19 08:52:00,36.1,26.0,30.28,WNW,298,13.0,13.0,67,0.00,,,0.00,weatherlink.com 1.10,2013-01-19 13:52:00,
2013-01-19 09:07:00,36.7,27.0,30.27,West,276,2.0,11.0,67,0.00,,,0.00,weatherlink.com 1.10,2013-01-19 14:07:00,
2013-01-19 09:22:00,37.1,27.0,30.28,SSW,197,3.0,13.0,66,0.00,,,0.00,weatherlink.com 1.10,2013-01-19 14:22:00,
2013-01-19 09:37:00,38.0,27.0,30.27,SSW,201,3.0,11.0,65,0.00,,,0.00,weatherlink.com 1.10,2013-01-19 14:37:00,
2013-01-19 09:52:00,38.6,27.0,30.26,SW,235,2.0,12.0,64,0.00,,,0.00,weatherlink.com 1.10,2013-01-19 14:52:00,
2013-01-19 10:07:00,39.6,27.0,30.25,SSW,204,5.0,12.0,61,0.00,,,0.00,weatherlink.com 1.10,2013-01-19 15:07:00,
2013-01-19 10:22:00,40.2,27.0,30.24,SE,141,3.0,12.0,60,0.00,,,0.00,weatherlink.com 1.10,2013-01-19 15:22:00,
2013-01-19 10:37:00,40.8,27.0,30.24,WSW,252,2.0,13.0,58,0.00,,,0.00,weatherlink.com 1.10,2013-01-19 15:37:00,
2013-01-19 10:52:00,41.5,28.0,30.22,WNW,290,4.0,12.0,58,0.00,,,0.00,weatherlink.com 1.10,2013-01-19 15:52:00,
2013-01-19 11:07:00,42.1,28.0,30.20,NW,309,2.0,12.0,57,0.00,,,0.00,weatherlink.com 1.10,2013-01-19 16:07:00,
2013-01-19 11:22:00,43.2,28.0,30.19,NNW,332,2.0,11.0,55,0.00,,,0.00,weatherlink.com 1.10,2013-01-19 16:22:00,
2013-01-19 11:37:00,44.0,28.0,30.18,SW,235,3.0,12.0,54,0.00,,,0.00,weatherlink.com 1.10,2013-01-19 16:37:00,
2013-01-19 11:53:00,45.1,28.0,30.16,WNW,299,3.0,13.0,52,0.00,,,0.00,weatherlink.com 1.10,2013-01-19 16:53:00,
2013-01-19 12:08:00,45.9,28.0,30.15,NNW,327,4.0,14.0,50,0.00,,,0.00,weatherlink.com 1.10,2013-01-19 17:08:00,
2013-01-19 12:38:00,47.5,28.0,30.13,West,262,4.0,9.0,48,0.00,,,0.00,weatherlink.com 1.10,2013-01-19 17:38:00,
2013-01-19 13:08:00,49.2,28.0,30.11,West,271,3.0,11.0,44,0.00,,,0.00,weatherlink.com 1.10,2013-01-19 18:08:00,
2013-01-19 13:23:00,49.3,27.0,30.11,WSW,252,4.0,11.0,43,0.00,,,0.00,weatherlink.com 1.10,2013-01-19 18:23:00,
2013-01-19 13:53:00,49.9,29.0,30.09,WNW,294,1.0,11.0,44,0.00,,,0.00,weatherlink.com 1.10,2013-01-19 18:53:00,
2013-01-19 14:23:00,50.9,28.0,30.08,WNW,294,4.0,9.0,41,0.00,,,0.00,weatherlink.com 1.10,2013-01-19 19:23:00,
2013-01-19 14:38:00,51.2,28.0,30.07,NW,304,8.0,9.0,41,0.00,,,0.00,weatherlink.com 1.10,2013-01-19 19:38:00,
2013-01-19 14:54:00,51.7,28.0,30.07,North,357,4.0,6.0,40,0.00,,,0.00,weatherlink.com 1.10,2013-01-19 19:54:00,
2013-01-19 15:08:00,51.8,28.0,30.07,WNW,301,2.0,10.0,40,0.00,,,0.00,weatherlink.com 1.10,2013-01-19 20:08:00,
2013-01-19 15:23:00,52.1,28.0,30.06,SE,146,4.0,9.0,39,0.00,,,0.00,weatherlink.com 1.10,2013-01-19 20:23:00,
2013-01-19 15:38:00,52.2,28.0,30.06,WNW,294,3.0,9.0,39,0.00,,,0.00,weatherlink.com 1.10,2013-01-19 20:38:00,
2013-01-19 16:08:00,52.3,27.0,30.05,SW,229,1.0,7.0,38,0.00,,,0.00,weatherlink.com 1.10,2013-01-19 21:08:00,
2013-01-19 16:23:00,51.8,27.0,30.05,NW,314,4.0,8.0,39,0.00,,,0.00,weatherlink.com 1.10,2013-01-19 21:23:00,
2013-01-19 17:08:00,50.6,27.0,30.04,WNW,293,4.0,9.0,41,0.00,,,0.00,weatherlink.com 1.10,2013-01-19 22:08:00,
2013-01-19 17:23:00,50.3,28.0,30.04,West,260,1.0,7.0,42,0.00,,,0.00,weatherlink.com 1.10,2013-01-19 22:23:00,
2013-01-19 17:38:00,50.1,28.0,30.04,WSW,242,2.0,8.0,43,0.00,,,0.00,weatherlink.com 1.10,2013-01-19 22:38:00,
2013-01-19 17:53:00,50.0,28.0,30.03,West,267,3.0,9.0,43,0.00,,,0.00,weatherlink.com 1.10,2013-01-19 22:53:00,
2013-01-19 18:08:00,49.8,28.0,30.03,WSW,253,3.0,8.0,44,0.00,,,0.00,weatherlink.com 1.10,2013-01-19 23:08:00,
2013-01-19 18:23:00,49.5,29.0,30.03,SSW,208,9.0,12.0,45,0.00,,,0.00,weatherlink.com 1.10,2013-01-19 23:23:00,
2013-01-19 18:38:00,49.2,29.0,30.02,WSW,242,1.0,8.0,46,0.00,,,0.00,weatherlink.com 1.10,2013-01-19 23:38:00,
2013-01-19 18:54:00,48.8,29.0,30.02,NNW,335,3.0,7.0,47,0.00,,,0.00,weatherlink.com 1.10,2013-01-19 23:54:00,
2013-01-19 19:09:00,48.5,29.0,30.02,SW,224,3.0,10.0,47,0.00,,,0.00,weatherlink.com 1.10,2013-01-20 00:09:00,
2013-01-19 19:24:00,48.2,29.0,30.02,West,264,5.0,7.0,48,0.00,,,0.00,weatherlink.com 1.10,2013-01-20 00:24:00,
2013-01-19 19:39:00,47.9,29.0,30.02,ENE,74,3.0,11.0,49,0.00,,,0.00,weatherlink.com 1.10,2013-01-20 00:39:00,
2013-01-19 20:09:00,47.0,30.0,30.01,WSW,256,3.0,9.0,51,0.00,,,0.00,weatherlink.com 1.10,2013-01-20 01:09:00,
2013-01-19 20:25:00,46.7,29.0,30.00,West,280,3.0,9.0,51,0.00,,,0.00,weatherlink.com 1.10,2013-01-20 01:25:00,
2013-01-19 20:39:00,46.5,29.0,30.00,South,176,1.0,11.0,51,0.00,,,0.00,weatherlink.com 1.10,2013-01-20 01:39:00,
2013-01-19 21:09:00,45.9,29.0,29.99,NW,305,3.0,7.0,52,0.00,,,0.00,weatherlink.com 1.10,2013-01-20 02:09:00,
2013-01-19 21:24:00,45.6,29.0,29.98,WNW,283,1.0,7.0,53,0.00,,,0.00,weatherlink.com 1.10,2013-01-20 02:24:00,
2013-01-19 21:39:00,45.5,29.0,29.98,West,266,1.0,9.0,53,0.00,,,0.00,weatherlink.com 1.10,2013-01-20 02:39:00,
2013-01-19 21:54:00,45.3,29.0,29.97,NW,311,2.0,7.0,54,0.00,,,0.00,weatherlink.com 1.10,2013-01-20 02:54:00,
2013-01-19 22:09:00,45.3,29.0,29.97,SW,236,2.0,7.0,54,0.00,,,0.00,weatherlink.com 1.10,2013-01-20 03:09:00,
2013-01-19 22:24:00,45.5,29.0,29.96,SW,219,2.0,10.0,53,0.00,,,0.00,weatherlink.com 1.10,2013-01-20 03:24:00,
2013-01-19 22:39:00,45.5,29.0,29.95,WSW,256,1.0,9.0,53,0.00,,,0.00,weatherlink.com 1.10,2013-01-20 03:39:00,
2013-01-19 22:54:00,45.5,29.0,29.95,NNW,335,3.0,11.0,53,0.00,,,0.00,weatherlink.com 1.10,2013-01-20 03:54:00,
2013-01-19 23:09:00,45.3,29.0,29.94,West,280,7.0,12.0,54,0.00,,,0.00,weatherlink.com 1.10,2013-01-20 04:09:00,
2013-01-19 23:24:00,45.1,30.0,29.93,WSW,257,1.0,11.0,55,0.00,,,0.00,weatherlink.com 1.10,2013-01-20 04:24:00,
2013-01-19 23:39:00,44.7,30.0,29.92,West,260,1.0,9.0,56,0.00,,,0.00,weatherlink.com 1.10,2013-01-20 04:39:00,
2013-01-19 23:54:00,44.5,29.0,29.91,SSE,162,1.0,11.0,56,0.00,,,0.00,weatherlink.com 1.10,2013-01-20 04:54:00,